Terminal Aerodrome Forecast
Issued by NWS

Home | Current Version | Previous Version | Text Only | Print | Product List | Glossary On
Versions: 1 2 3 4 5 6 7 8 9 10 11 12 13 14 15 16
000
FTUS43 KMPX 291737
TAFRNH
TAF
KRNH 291737Z 2918/3018 VRB03KT P6SM BKN008
     FM291830 20003KT P6SM SKC
     FM301100 18003KT 2SM BR OVC003
     FM301400 19007KT P6SM SKC=

USA.gov is the U.S. government's official web portal to all federal, state and local government web resources and services.